Time;durP1;ratioP1;P1;durP2;ratioP2;P2;SDS_P1;SDS_P2;PMS_P1;PMS_P2;Temp;Humidity;BMP_temperature;BMP_pressure;BME280_temperature;BME280_humidity;BME280_pressure;Samples;Min_cycle;Max_cycle;Signal;HPM_P1;HPM_P2
2024/03/09 00:00:40;;;;;;;47.03;23.25;;;;;;;9.58;54.94;100578.13;5034587;28;20025;-42
2024/03/09 00:03:11;;;;;;;52.13;24.17;;;;;;;9.49;55.61;100580.66;5050501;28;20035;-41
2024/03/09 00:05:39;;;;;;;46.78;22.77;;;;;;;9.72;54.98;100580.91;5050681;28;20542;-41
2024/03/09 00:08:07;;;;;;;46.53;22.60;;;;;;;9.70;54.58;100578.28;5033815;28;20056;-42
2024/03/09 00:10:32;;;;;;;49.08;23.00;;;;;;;9.54;55.53;100571.16;5071292;23;20041;-46
2024/03/09 00:12:59;;;;;;;52.70;23.70;;;;;;;9.46;56.43;100577.09;5051635;28;20051;-49
2024/03/09 00:15:25;;;;;;;48.13;23.55;;;;;;;9.62;55.62;100561.72;5052114;28;20036;-46
2024/03/09 00:17:52;;;;;;;49.15;23.55;;;;;;;9.70;55.52;100569.59;5052828;28;20060;-46
2024/03/09 00:20:23;;;;;;;49.75;23.65;;;;;;;9.75;54.88;100561.03;5051333;28;20040;-46
2024/03/09 00:22:49;;;;;;;49.00;23.67;;;;;;;9.62;55.17;100556.53;5048729;28;20538;-46
2024/03/09 00:25:15;;;;;;;50.38;24.08;;;;;;;9.33;55.88;100553.53;5051352;28;20086;-46
2024/03/09 00:27:41;;;;;;;48.58;23.10;;;;;;;9.70;54.83;100557.47;5051025;28;20496;-45
2024/03/09 00:30:18;;;;;;;57.55;23.92;;;;;;;9.49;55.23;100569.34;5051574;28;20029;-45
2024/03/09 00:32:45;;;;;;;49.35;22.80;;;;;;;9.59;55.15;100560.81;5048091;28;20140;-44
2024/03/09 00:35:10;;;;;;;47.67;22.67;;;;;;;9.42;55.88;100552.78;5051398;28;20032;-48
2024/03/09 00:37:36;;;;;;;53.33;24.38;;;;;;;9.22;56.85;100564.66;5051007;28;20124;-46
2024/03/09 00:40:08;;;;;;;49.67;23.73;;;;;;;9.35;56.73;100549.22;5051038;28;20035;-46
2024/03/09 00:42:35;;;;;;;52.80;24.10;;;;;;;9.60;55.41;100555.63;5050128;28;20045;-48
2024/03/09 00:45:02;;;;;;;50.55;24.05;;;;;;;9.36;56.05;100551.00;5050911;28;20059;-46
2024/03/09 00:47:28;;;;;;;48.38;23.95;;;;;;;9.32;56.24;100559.63;5050860;28;20043;-47
2024/03/09 00:49:54;;;;;;;51.88;23.90;;;;;;;9.44;56.02;100543.28;5051655;28;20112;-49
2024/03/09 00:52:20;;;;;;;48.17;23.80;;;;;;;9.57;55.46;100546.91;5052318;28;20033;-46
2024/03/09 00:54:45;;;;;;;52.03;23.83;;;;;;;9.22;57.00;100543.84;5052917;28;20036;-46
2024/03/09 00:57:10;;;;;;;49.75;23.63;;;;;;;9.11;56.90;100542.81;5053339;28;20072;-44
2024/03/09 00:59:36;;;;;;;47.80;23.05;;;;;;;9.03;56.95;100534.03;5051895;28;20033;-47
2024/03/09 01:02:01;;;;;;;51.45;23.58;;;;;;;9.41;55.96;100534.56;5051718;28;20063;-45
2024/03/09 01:04:30;;;;;;;51.00;23.70;;;;;;;9.46;55.88;100531.16;5051970;28;20403;-46
2024/03/09 01:06:57;;;;;;;51.90;23.92;;;;;;;9.47;55.45;100526.81;5052979;28;20036;-44
2024/03/09 01:09:23;;;;;;;51.33;23.80;;;;;;;9.08;57.37;100525.47;5052012;28;20041;-46
2024/03/09 01:11:48;;;;;;;51.47;24.60;;;;;;;9.44;55.92;100521.59;5051053;28;20035;-45
2024/03/09 01:14:14;;;;;;;49.47;23.30;;;;;;;9.42;55.61;100513.75;5053190;28;20033;-46
2024/03/09 01:16:40;;;;;;;54.25;24.58;;;;;;;9.13;56.90;100508.19;5051624;28;20388;-47
2024/03/09 01:19:06;;;;;;;52.28;23.95;;;;;;;9.50;54.86;100513.88;5052661;28;20031;-46
2024/03/09 01:21:33;;;;;;;53.17;23.48;;;;;;;9.46;55.22;100512.94;5051284;28;20041;-48
2024/03/09 01:24:00;;;;;;;53.38;24.15;;;;;;;9.23;56.34;100503.97;5050311;28;20102;-47
2024/03/09 01:26:26;;;;;;;52.20;24.77;;;;;;;9.08;56.41;100499.47;5050392;28;20060;-47
2024/03/09 01:28:51;;;;;;;52.80;24.60;;;;;;;8.76;58.31;100503.34;5050443;28;20037;-46
2024/03/09 01:31:18;;;;;;;50.17;23.35;;;;;;;9.02;57.50;100493.31;5050216;28;20037;-46
2024/03/09 01:33:44;;;;;;;53.30;24.83;;;;;;;9.22;56.40;100486.63;5049417;28;20463;-46
2024/03/09 01:36:10;;;;;;;52.55;24.20;;;;;;;9.04;57.07;100492.47;5050176;28;20056;-44
2024/03/09 01:38:39;;;;;;;50.17;24.35;;;;;;;9.01;57.30;100494.16;5049825;28;20063;-49
2024/03/09 01:41:04;;;;;;;50.92;23.92;;;;;;;8.95;57.55;100495.81;5049120;28;20059;-49
2024/03/09 01:43:30;;;;;;;50.28;23.50;;;;;;;8.90;58.23;100499.22;5050973;28;20496;-49
2024/03/09 01:45:56;;;;;;;53.40;24.00;;;;;;;8.75;58.18;100489.47;5049965;28;20186;-46
2024/03/09 01:48:21;;;;;;;52.60;24.35;;;;;;;8.85;58.31;100488.72;5050320;28;20033;-47
2024/03/09 01:50:51;;;;;;;54.95;25.20;;;;;;;9.15;57.12;100484.81;5049555;28;20112;-46
2024/03/09 01:53:18;;;;;;;57.25;24.90;;;;;;;8.84;58.03;100480.94;5049895;28;20051;-47
2024/03/09 01:55:48;;;;;;;56.17;25.00;;;;;;;8.80;57.92;100477.41;5049976;28;20499;-45
2024/03/09 01:58:15;;;;;;;64.78;25.10;;;;;;;8.68;58.62;100476.34;5050805;28;20037;-47
2024/03/09 02:00:42;;;;;;;56.63;24.13;;;;;;;8.67;58.69;100470.28;5049403;28;20053;-45
2024/03/09 02:03:12;;;;;;;55.92;25.17;;;;;;;8.97;57.51;100467.22;5050411;28;20033;-46
2024/03/09 02:05:39;;;;;;;50.70;24.45;;;;;;;8.78;57.89;100473.91;5050209;28;20063;-47
2024/03/09 02:08:06;;;;;;;53.15;24.38;;;;;;;8.82;58.20;100470.50;5050103;28;20112;-46
2024/03/09 02:10:33;;;;;;;55.55;24.08;;;;;;;8.94;57.78;100460.28;5049660;28;20044;-44
2024/03/09 02:12:58;;;;;;;52.40;24.20;;;;;;;8.56;58.22;100451.06;5049515;28;20117;-46
2024/03/09 02:15:29;;;;;;;53.30;24.05;;;;;;;8.89;57.50;100451.53;5049610;28;20119;-46
2024/03/09 02:17:56;;;;;;;54.38;24.55;;;;;;;8.62;58.28;100453.75;5050450;28;20092;-48
2024/03/09 02:20:25;;;;;;;55.20;24.85;;;;;;;8.53;58.90;100449.31;5051111;28;20499;-47
2024/03/09 02:22:53;;;;;;;55.15;24.90;;;;;;;8.94;57.37;100442.06;5050486;28;20094;-44
2024/03/09 02:25:21;;;;;;;53.72;24.58;;;;;;;8.85;58.04;100443.66;5053863;28;20045;-46
2024/03/09 02:27:47;;;;;;;53.40;24.55;;;;;;;8.75;58.45;100434.88;5053519;28;20124;-46
2024/03/09 02:30:13;;;;;;;59.95;25.20;;;;;;;8.91;57.90;100433.34;5053961;28;20463;-45
2024/03/09 02:32:39;;;;;;;52.58;25.10;;;;;;;8.99;57.00;100429.13;5051596;28;20041;-50
2024/03/09 02:35:05;;;;;;;53.70;24.65;;;;;;;9.01;57.32;100430.03;5054146;28;20059;-46
2024/03/09 02:37:30;;;;;;;57.45;25.70;;;;;;;8.73;58.71;100420.09;5054605;28;20037;-47
2024/03/09 02:39:56;;;;;;;53.10;24.95;;;;;;;8.68;58.71;100429.56;5053621;28;20398;-45
2024/03/09 02:42:21;;;;;;;53.53;25.05;;;;;;;8.78;58.07;100416.72;5053714;28;20033;-46
2024/03/09 02:44:46;;;;;;;56.03;24.95;;;;;;;8.83;58.36;100414.19;5055153;28;20120;-47
2024/03/09 02:47:12;;;;;;;50.88;24.45;;;;;;;8.56;59.01;100414.69;5054001;28;20115;-47
2024/03/09 02:49:38;;;;;;;53.08;25.35;;;;;;;9.04;58.36;100398.84;5052936;28;20047;-46
2024/03/09 02:52:04;;;;;;;54.47;25.38;;;;;;;9.01;57.91;100408.34;5052710;28;20181;-46
2024/03/09 02:54:30;;;;;;;55.33;24.70;;;;;;;9.21;57.10;100397.31;5052821;28;20033;-47
2024/03/09 02:56:55;;;;;;;53.35;25.65;;;;;;;9.26;57.11;100403.47;5053281;28;20094;-44
2024/03/09 02:59:22;;;;;;;52.20;24.80;;;;;;;9.27;57.22;100401.75;5052992;28;20041;-46
2024/03/09 03:01:48;;;;;;;52.00;24.17;;;;;;;8.93;57.86;100401.31;5051894;28;20025;-48
2024/03/09 03:04:14;;;;;;;52.58;25.05;;;;;;;9.08;57.70;100398.06;5034751;28;20035;-48
2024/03/09 03:06:40;;;;;;;53.10;24.67;;;;;;;9.12;57.37;100392.03;5052635;28;20047;-46
2024/03/09 03:09:11;;;;;;;50.30;23.88;;;;;;;8.94;58.12;100397.88;5034658;28;20034;-45
2024/03/09 03:11:36;;;;;;;51.97;23.92;;;;;;;9.36;56.60;100394.03;5052088;28;20052;-46
2024/03/09 03:14:01;;;;;;;56.70;25.38;;;;;;;9.00;58.21;100401.41;5052553;28;20572;-49
2024/03/09 03:16:31;;;;;;;51.17;23.70;;;;;;;9.55;55.74;100400.28;5052033;28;20512;-45
2024/03/09 03:18:58;;;;;;;51.75;24.10;;;;;;;9.17;56.37;100412.88;5035615;28;20036;-45
2024/03/09 03:21:25;;;;;;;55.25;24.60;;;;;;;9.55;55.68;100400.28;5051724;28;20116;-45
2024/03/09 03:23:51;;;;;;;51.38;24.48;;;;;;;9.73;54.97;100408.25;5051502;28;20041;-48
2024/03/09 03:26:17;;;;;;;50.63;23.42;;;;;;;9.52;55.79;100402.84;5052407;28;20029;-46
2024/03/09 03:28:49;;;;;;;53.10;24.48;;;;;;;9.74;54.98;100399.59;5018416;28;20036;-46
2024/03/09 03:31:16;;;;;;;50.55;22.38;;;;;;;9.52;55.11;100400.22;5050380;28;20545;-45
2024/03/09 03:33:42;;;;;;;51.67;23.30;;;;;;;9.53;55.46;100399.38;5034217;28;20037;-45
2024/03/09 03:36:18;;;;;;;50.67;22.55;;;;;;;9.83;54.37;100391.88;5051167;28;20301;-46
2024/03/09 03:38:46;;;;;;;50.33;23.88;;;;;;;9.86;54.29;100396.22;5052468;28;20037;-46
2024/03/09 03:41:14;;;;;;;48.10;23.20;;;;;;;9.61;54.83;100384.72;5053037;28;20040;-45
2024/03/09 03:43:40;;;;;;;50.75;23.73;;;;;;;9.84;54.39;100388.41;5052348;28;20029;-46
2024/03/09 03:46:09;;;;;;;52.85;24.15;;;;;;;9.66;54.77;100391.72;5053041;28;20108;-48
2024/03/09 03:48:35;;;;;;;48.35;24.05;;;;;;;9.83;54.73;100389.25;5052318;28;20096;-46
2024/03/09 03:51:00;;;;;;;52.15;23.27;;;;;;;9.62;54.98;100389.09;5051302;28;20035;-48
2024/03/09 03:53:28;;;;;;;50.15;23.88;;;;;;;9.77;54.53;100390.06;5051821;28;20119;-45
2024/03/09 03:55:53;;;;;;;52.95;24.42;;;;;;;9.87;54.26;100382.38;5051220;28;20059;-44
2024/03/09 03:58:20;;;;;;;52.72;24.20;;;;;;;9.50;55.69;100383.75;5052584;28;20041;-47
2024/03/09 04:00:48;;;;;;;47.63;22.85;;;;;;;8.85;56.68;100371.75;5051800;28;20067;-46
2024/03/09 04:03:16;;;;;;;51.40;23.90;;;;;;;9.44;54.99;100381.09;5050469;28;20033;-45
2024/03/09 04:05:42;;;;;;;49.85;23.20;;;;;;;9.69;54.50;100368.34;5052154;28;20056;-46
2024/03/09 04:08:08;;;;;;;50.13;23.58;;;;;;;9.93;53.67;100375.47;5052866;28;20025;-51
2024/03/09 04:10:33;;;;;;;51.30;24.02;;;;;;;9.70;55.16;100377.00;5051129;28;20037;-44
2024/03/09 04:12:59;;;;;;;54.63;23.80;;;;;;;9.57;55.85;100375.16;5051261;28;20057;-46
2024/03/09 04:15:26;;;;;;;49.28;23.40;;;;;;;9.75;54.78;100378.81;5050160;28;20418;-47
2024/03/09 04:17:52;;;;;;;48.67;22.90;;;;;;;9.47;55.54;100373.31;5049867;28;20094;-45
2024/03/09 04:20:17;;;;;;;52.65;23.90;;;;;;;9.82;54.87;100365.84;5050206;28;20267;-45
2024/03/09 04:22:45;;;;;;;53.92;23.98;;;;;;;9.85;54.54;100368.44;5050803;28;20039;-47
2024/03/09 04:25:15;;;;;;;53.47;24.38;;;;;;;9.53;55.54;100366.44;5050395;28;20395;-46
2024/03/09 04:27:40;;;;;;;53.95;24.63;;;;;;;9.32;56.52;100371.44;5050970;28;20065;-45
2024/03/09 04:30:12;;;;;;;53.17;24.08;;;;;;;9.29;56.61;100368.78;5049289;28;20060;-46
2024/03/09 04:32:38;;;;;;;51.88;24.08;;;;;;;8.95;57.42;100357.16;5051270;28;20048;-45
2024/03/09 04:35:06;;;;;;;49.58;23.88;;;;;;;9.50;55.57;100350.81;5051650;28;20514;-46
2024/03/09 04:37:34;;;;;;;49.17;24.13;;;;;;;9.23;56.58;100351.41;5052324;28;20052;-46
2024/03/09 04:40:00;;;;;;;51.05;24.23;;;;;;;9.42;56.02;100356.78;5053529;28;20510;-47
2024/03/09 04:42:26;;;;;;;54.55;24.88;;;;;;;9.25;56.65;100346.22;5051064;28;20118;-46
2024/03/09 04:44:51;;;;;;;53.17;24.00;;;;;;;9.26;56.84;100348.84;5051078;28;20056;-46
2024/03/09 04:47:18;;;;;;;54.17;25.38;;;;;;;9.57;55.54;100347.41;5050499;28;20116;-46
2024/03/09 04:49:45;;;;;;;55.95;25.05;;;;;;;9.45;55.92;100344.69;5050986;28;20166;-44
2024/03/09 04:52:12;;;;;;;50.78;24.65;;;;;;;9.28;57.10;100351.44;5051748;28;20037;-46
2024/03/09 04:54:39;;;;;;;52.33;24.25;;;;;;;9.53;55.88;100350.81;5051150;28;20044;-45
2024/03/09 04:57:04;;;;;;;53.58;24.50;;;;;;;8.91;58.26;100351.03;5051104;28;20025;-44
2024/03/09 04:59:30;;;;;;;57.35;24.60;;;;;;;9.33;57.26;100348.03;5051266;28;20396;-48
2024/03/09 05:01:55;;;;;;;52.85;24.73;;;;;;;9.03;57.03;100350.28;5051795;28;20029;-47
2024/03/09 05:04:20;;;;;;;51.25;23.92;;;;;;;9.50;56.24;100334.31;5052087;28;20037;-48
2024/03/09 05:06:48;;;;;;;53.08;25.45;;;;;;;9.54;55.78;100329.16;5050397;28;20687;-50
2024/03/09 05:09:15;;;;;;;56.15;24.67;;;;;;;9.35;56.60;100322.91;5050462;28;20169;-47
2024/03/09 05:11:41;;;;;;;55.55;24.40;;;;;;;9.60;56.13;100320.53;5050189;28;20067;-47
2024/03/09 05:14:06;;;;;;;58.35;24.52;;;;;;;9.12;57.87;100326.13;5050766;28;20542;-49
2024/03/09 05:16:32;;;;;;;58.40;25.65;;;;;;;9.25;57.33;100325.41;5050437;28;20040;-45
2024/03/09 05:18:58;;;;;;;53.53;24.70;;;;;;;9.00;58.08;100323.41;5050569;28;20029;-44
2024/03/09 05:21:24;;;;;;;51.47;24.38;;;;;;;9.49;56.77;100329.97;5050554;28;20522;-45
2024/03/09 05:23:50;;;;;;;51.13;24.42;;;;;;;9.70;56.07;100324.94;5049432;28;20068;-45
2024/03/09 05:26:15;;;;;;;54.35;24.92;;;;;;;9.38;56.89;100326.41;5050737;28;20036;-45
2024/03/09 05:28:43;;;;;;;55.58;25.17;;;;;;;9.36;56.89;100316.84;5050113;28;20509;-45
2024/03/09 05:31:26;;;;;;;54.33;24.98;;;;;;;9.36;56.73;100319.44;5048232;28;20041;-45
2024/03/09 05:33:53;;;;;;;51.80;24.40;;;;;;;9.31;57.18;100312.47;5049498;28;20033;-46
2024/03/09 05:36:19;;;;;;;57.97;25.85;;;;;;;9.21;57.61;100319.28;5050358;28;20716;-46
2024/03/09 05:38:48;;;;;;;55.25;25.30;;;;;;;9.32;57.26;100316.81;5049751;28;20063;-47
2024/03/09 05:41:13;;;;;;;55.28;25.35;;;;;;;9.33;56.91;100316.81;5050238;28;20112;-46
2024/03/09 05:43:38;;;;;;;50.22;24.27;;;;;;;9.19;57.29;100310.63;5049450;28;20037;-44
2024/03/09 05:46:07;;;;;;;51.92;24.80;;;;;;;9.49;56.54;100306.56;5049947;28;20033;-45
2024/03/09 05:48:32;;;;;;;51.53;24.75;;;;;;;9.15;57.73;100303.63;5049456;28;20041;-46
2024/03/09 05:50:57;;;;;;;51.63;24.17;;;;;;;9.30;57.25;100308.13;5050203;28;20395;-46
2024/03/09 05:53:26;;;;;;;53.35;25.08;;;;;;;9.30;57.20;100314.19;5050215;28;20162;-48
2024/03/09 05:55:52;;;;;;;50.00;24.63;;;;;;;9.34;57.30;100302.94;5049914;28;20586;-47
2024/03/09 05:58:20;;;;;;;56.00;25.30;;;;;;;8.92;58.53;100313.78;5049928;28;20056;-44
2024/03/09 06:00:46;;;;;;;51.83;24.38;;;;;;;8.90;58.12;100301.66;5048240;28;20107;-46
2024/03/09 06:03:12;;;;;;;52.38;24.55;;;;;;;9.38;57.51;100308.19;5050158;28;20033;-45
2024/03/09 06:05:37;;;;;;;51.35;24.20;;;;;;;9.47;56.19;100305.66;5050499;28;20063;-46
2024/03/09 06:08:03;;;;;;;54.58;24.95;;;;;;;9.27;57.19;100306.34;5049974;28;20029;-50
2024/03/09 06:10:28;;;;;;;53.08;24.80;;;;;;;8.97;57.97;100298.22;5051148;28;20049;-49
2024/03/09 06:12:54;;;;;;;50.33;24.48;;;;;;;9.52;56.84;100301.34;5050228;28;20071;-44
2024/03/09 06:15:24;;;;;;;52.42;24.35;;;;;;;9.17;57.82;100303.66;5050580;28;20053;-46
2024/03/09 06:17:53;;;;;;;54.70;25.08;;;;;;;9.73;55.69;100304.16;5050487;28;20033;-46
2024/03/09 06:20:20;;;;;;;54.00;25.23;;;;;;;9.39;56.66;100310.81;5050361;28;20496;-50
2024/03/09 06:22:46;;;;;;;50.50;23.90;;;;;;;9.48;56.93;100297.88;5047782;28;20055;-48
2024/03/09 06:25:19;;;;;;;51.75;24.23;;;;;;;9.38;57.17;100301.25;5049457;28;20032;-49
2024/03/09 06:27:45;;;;;;;51.58;24.50;;;;;;;9.36;56.72;100300.38;5047588;28;20043;-47
2024/03/09 06:30:15;;;;;;;52.38;23.83;;;;;;;9.49;56.53;100309.16;5049055;28;20029;-48
2024/03/09 06:32:40;;;;;;;55.50;25.00;;;;;;;9.77;56.10;100305.91;5050149;28;20124;-47
2024/03/09 06:35:07;;;;;;;52.50;24.20;;;;;;;9.54;56.38;100310.94;5050039;28;20137;-45
2024/03/09 06:37:32;;;;;;;52.97;24.23;;;;;;;9.59;56.07;100311.84;5048733;28;20037;-45
2024/03/09 06:39:58;;;;;;;50.28;23.70;;;;;;;9.98;54.88;100311.28;5049714;28;20514;-47
2024/03/09 06:42:24;;;;;;;48.95;23.90;;;;;;;9.71;55.35;100311.06;5051023;28;20388;-46
2024/03/09 06:44:49;;;;;;;52.63;23.42;;;;;;;9.84;55.60;100304.22;5050794;28;20067;-45
2024/03/09 06:47:15;;;;;;;49.88;24.35;;;;;;;9.61;56.50;100307.53;5049676;28;20051;-44
2024/03/09 06:49:40;;;;;;;48.28;23.98;;;;;;;10.00;55.25;100304.31;5051067;28;20033;-46
2024/03/09 06:52:06;;;;;;;48.40;23.58;;;;;;;9.80;55.26;100313.75;5052085;28;20071;-45
2024/03/09 06:54:32;;;;;;;48.63;23.98;;;;;;;9.92;55.28;100307.75;5052568;28;20033;-46
2024/03/09 06:56:58;;;;;;;49.80;24.13;;;;;;;10.30;54.46;100308.03;5051532;28;20037;-46
2024/03/09 06:59:23;;;;;;;46.13;23.23;;;;;;;9.83;55.53;100305.06;5051094;28;20047;-45
2024/03/09 07:02:08;;;;;;;49.38;23.83;;;;;;;9.67;56.09;100304.09;5049228;28;20029;-47
2024/03/09 07:04:33;;;;;;;47.80;22.33;;;;;;;9.91;55.88;100304.28;5049045;28;20519;-46
2024/03/09 07:06:59;;;;;;;49.45;23.63;;;;;;;10.33;55.06;100300.22;5049428;28;20106;-45
2024/03/09 07:09:24;;;;;;;47.00;22.58;;;;;;;9.84;56.41;100301.63;5050149;28;20037;-47
2024/03/09 07:11:53;;;;;;;51.25;23.40;;;;;;;9.74;56.66;100309.38;5052025;28;20547;-48
2024/03/09 07:14:21;;;;;;;52.20;23.65;;;;;;;9.64;57.20;100307.53;5052810;28;20093;-45
2024/03/09 07:16:46;;;;;;;48.53;23.00;;;;;;;9.78;57.49;100298.13;5052638;28;20037;-44
2024/03/09 07:19:13;;;;;;;47.20;22.60;;;;;;;9.52;58.55;100301.34;5053098;28;20021;-46
2024/03/09 07:21:40;;;;;;;51.42;23.90;;;;;;;9.33;59.24;100300.34;5052382;28;20037;-46
2024/03/09 07:24:07;;;;;;;47.65;23.05;;;;;;;9.80;57.75;100292.06;5052836;28;20041;-48
2024/03/09 07:26:33;;;;;;;47.00;22.90;;;;;;;10.15;57.01;100293.16;5052527;28;20043;-46
2024/03/09 07:28:59;;;;;;;52.40;23.38;;;;;;;9.94;57.59;100299.06;5051421;28;20037;-45
2024/03/09 07:31:27;;;;;;;47.35;22.88;;;;;;;10.16;56.98;100305.31;5051899;28;20041;-46
2024/03/09 07:33:53;;;;;;;49.63;23.50;;;;;;;10.04;57.28;100297.41;5051627;28;20037;-45
2024/03/09 07:36:20;;;;;;;48.95;23.60;;;;;;;9.71;58.42;100305.84;5052371;28;20047;-49
2024/03/09 07:38:49;;;;;;;46.25;22.98;;;;;;;9.80;58.05;100305.06;5052157;28;20502;-46
2024/03/09 07:41:16;;;;;;;47.15;23.50;;;;;;;10.03;57.47;100301.75;5052401;28;20036;-47
2024/03/09 07:43:42;;;;;;;44.95;21.98;;;;;;;10.34;56.58;100295.03;5051514;28;20163;-46
2024/03/09 07:46:07;;;;;;;51.42;23.08;;;;;;;10.42;56.12;100300.28;5054125;28;20029;-45
2024/03/09 07:48:34;;;;;;;49.00;22.83;;;;;;;10.32;56.74;100298.47;5052242;28;20124;-47
2024/03/09 07:50:59;;;;;;;47.08;22.33;;;;;;;10.32;56.48;100301.94;5052525;28;20048;-45
2024/03/09 07:53:25;;;;;;;44.63;22.10;;;;;;;10.62;55.47;100305.56;5052027;28;20033;-46
2024/03/09 07:55:50;;;;;;;47.83;22.95;;;;;;;10.24;56.36;100302.78;5052255;28;20511;-45
2024/03/09 07:58:15;;;;;;;46.42;22.70;;;;;;;10.38;56.27;100301.97;5052633;28;20033;-45
2024/03/09 08:00:42;;;;;;;43.53;21.67;;;;;;;10.87;54.70;100299.56;5052609;28;20033;-45
2024/03/09 08:03:07;;;;;;;44.10;21.63;;;;;;;10.75;54.78;100296.91;5052616;28;20110;-47
2024/03/09 08:05:33;;;;;;;42.63;21.90;;;;;;;10.88;54.88;100296.97;5050225;28;20403;-46
2024/03/09 08:08:03;;;;;;;43.17;22.13;;;;;;;10.74;55.41;100298.66;5051718;28;20029;-44
2024/03/09 08:10:29;;;;;;;49.40;21.83;;;;;;;10.97;54.78;100299.63;5051582;28;20045;-46
2024/03/09 08:12:56;;;;;;;47.63;22.00;;;;;;;11.16;54.53;100284.00;5051626;28;20059;-49
2024/03/09 08:15:22;;;;;;;45.90;21.63;;;;;;;11.33;54.37;100284.91;5051837;28;20112;-45
2024/03/09 08:17:47;;;;;;;43.45;21.40;;;;;;;11.53;52.92;100288.38;5051646;28;20448;-46
2024/03/09 08:20:17;;;;;;;43.67;21.52;;;;;;;10.99;54.01;100287.44;5051489;28;20025;-46
2024/03/09 08:22:45;;;;;;;39.72;21.13;;;;;;;11.79;52.10;100293.63;5050230;28;20036;-46
2024/03/09 08:25:12;;;;;;;40.83;21.27;;;;;;;12.18;51.52;100280.50;5051335;28;20116;-45
2024/03/09 08:27:39;;;;;;;43.53;20.95;;;;;;;11.91;51.19;100277.94;5051107;28;20044;-44
2024/03/09 08:30:15;;;;;;;41.63;20.77;;;;;;;12.08;50.70;100272.66;5051777;28;20025;-45
2024/03/09 08:32:44;;;;;;;39.42;20.65;;;;;;;12.05;50.47;100278.78;5051003;28;20064;-44
2024/03/09 08:35:10;;;;;;;39.45;20.20;;;;;;;11.87;50.49;100276.22;5051411;28;20037;-46
2024/03/09 08:37:41;;;;;;;38.92;20.08;;;;;;;11.46;51.66;100284.03;5051155;28;20033;-46
2024/03/09 08:40:10;;;;;;;38.67;19.70;;;;;;;11.75;51.02;100271.00;5051214;28;20033;-44
2024/03/09 08:42:36;;;;;;;40.47;20.35;;;;;;;12.43;49.46;100260.38;5050250;28;20033;-43
2024/03/09 08:45:05;;;;;;;38.30;20.02;;;;;;;12.10;50.04;100252.63;5050841;28;20048;-47
2024/03/09 08:47:31;;;;;;;38.70;20.55;;;;;;;12.62;48.41;100250.72;5050438;28;20540;-46
2024/03/09 08:49:57;;;;;;;40.40;19.92;;;;;;;12.31;49.40;100251.72;5051398;28;20091;-45
2024/03/09 08:52:22;;;;;;;38.42;19.92;;;;;;;12.38;49.29;100258.66;5051934;28;20108;-45
2024/03/09 08:54:47;;;;;;;36.03;19.88;;;;;;;12.58;49.22;100260.31;5051795;28;20041;-48
2024/03/09 08:57:13;;;;;;;37.20;19.35;;;;;;;12.36;49.70;100253.44;5051751;28;20090;-45
2024/03/09 08:59:42;;;;;;;39.67;19.90;;;;;;;11.97;50.96;100249.19;5050632;28;20057;-45
2024/03/09 09:02:07;;;;;;;38.90;20.35;;;;;;;12.04;50.89;100247.44;5050558;28;20119;-46
2024/03/09 09:04:35;;;;;;;39.97;20.00;;;;;;;12.50;49.90;100246.38;5050815;28;20115;-45
2024/03/09 09:07:01;;;;;;;39.92;20.00;;;;;;;12.13;51.11;100229.13;5051755;28;20029;-47
2024/03/09 09:09:26;;;;;;;39.13;20.58;;;;;;;12.53;50.64;100233.31;5050395;28;20116;-46
2024/03/09 09:11:52;;;;;;;37.50;19.70;;;;;;;12.25;50.75;100225.59;5049963;28;20514;-45
2024/03/09 09:14:19;;;;;;;35.40;19.25;;;;;;;12.55;50.51;100215.88;5050558;28;20044;-46
2024/03/09 09:16:45;;;;;;;40.35;20.00;;;;;;;12.91;49.33;100227.88;5049627;28;20036;-45
2024/03/09 09:19:10;;;;;;;36.70;19.60;;;;;;;13.72;48.38;100228.09;5048465;28;20033;-44
2024/03/09 09:21:35;;;;;;;34.83;19.00;;;;;;;13.59;47.96;100234.38;5049882;28;20043;-46
2024/03/09 09:24:04;;;;;;;37.67;19.55;;;;;;;13.84;47.36;100248.09;5050277;28;20040;-47
2024/03/09 09:26:30;;;;;;;34.17;19.05;;;;;;;13.71;47.21;100236.88;5049943;28;20041;-47
2024/03/09 09:28:56;;;;;;;33.70;18.98;;;;;;;13.24;48.79;100241.63;5050154;28;20029;-49
2024/03/09 09:31:21;;;;;;;35.63;18.52;;;;;;;13.04;49.08;100231.28;5050246;28;20517;-49
2024/03/09 09:33:46;;;;;;;32.28;17.92;;;;;;;13.42;49.02;100235.41;5049064;28;20025;-47
2024/03/09 09:36:12;;;;;;;35.65;19.05;;;;;;;13.18;49.51;100239.03;5050401;28;20051;-47
2024/03/09 09:38:39;;;;;;;37.00;18.60;;;;;;;12.98;49.77;100237.44;5050030;28;20145;-46
2024/03/09 09:41:08;;;;;;;39.33;19.67;;;;;;;12.98;50.02;100234.81;5050111;28;20087;-44
2024/03/09 09:43:37;;;;;;;35.28;18.83;;;;;;;13.30;49.88;100228.47;5050271;28;20029;-49
2024/03/09 09:46:04;;;;;;;32.75;17.88;;;;;;;13.57;49.01;100212.53;5049890;28;20033;-46
2024/03/09 09:48:33;;;;;;;34.55;18.58;;;;;;;13.17;50.00;100221.63;5049764;28;20037;-46
2024/03/09 09:51:01;;;;;;;30.83;17.55;;;;;;;13.46;50.27;100219.63;5049962;28;20403;-43
2024/03/09 09:53:27;;;;;;;33.92;17.73;;;;;;;13.31;49.66;100215.38;5049306;28;20029;-45
2024/03/09 09:55:52;;;;;;;33.72;18.17;;;;;;;13.29;49.61;100208.44;5049801;28;20442;-46
2024/03/09 09:58:18;;;;;;;34.95;18.77;;;;;;;13.58;48.99;100205.56;5049890;28;20060;-45
2024/03/09 10:00:43;;;;;;;34.17;18.45;;;;;;;13.50;49.05;100196.91;5049182;28;20471;-46
2024/03/09 10:03:10;;;;;;;34.70;16.85;;;;;;;13.45;49.34;100181.22;5049907;28;20458;-47
2024/03/09 10:05:35;;;;;;;34.22;18.13;;;;;;;13.91;48.00;100186.84;5049223;28;20037;-46
2024/03/09 10:08:09;;;;;;;31.95;17.50;;;;;;;13.91;48.07;100183.38;5050145;28;20376;-45
2024/03/09 10:10:37;;;;;;;28.85;16.60;;;;;;;14.18;47.74;100185.69;5050312;28;20041;-47
2024/03/09 10:13:06;;;;;;;32.03;17.17;;;;;;;14.34;47.50;100179.34;5050745;28;20025;-45
2024/03/09 10:15:34;;;;;;;37.28;18.00;;;;;;;14.40;47.62;100187.16;5050331;28;20041;-44
2024/03/09 10:17:59;;;;;;;30.95;17.42;;;;;;;14.62;48.21;100187.75;5050015;28;20029;-46
2024/03/09 10:20:24;;;;;;;34.13;17.55;;;;;;;14.34;48.56;100183.72;5050884;28;20037;-45
2024/03/09 10:22:50;;;;;;;35.45;18.17;;;;;;;14.37;47.69;100189.84;5048852;28;20535;-47
2024/03/09 10:25:28;;;;;;;34.67;17.10;;;;;;;14.69;46.40;100184.16;5049325;28;20090;-48
2024/03/09 10:27:59;;;;;;;34.53;17.50;;;;;;;14.86;47.46;100178.66;5050292;28;20041;-46
2024/03/09 10:30:25;;;;;;;34.15;18.00;;;;;;;14.85;47.41;100169.91;5050066;28;20033;-45
2024/03/09 10:32:54;;;;;;;29.02;16.90;;;;;;;15.14;46.38;100173.84;5049300;28;20033;-45
2024/03/09 10:35:22;;;;;;;31.17;17.15;;;;;;;14.90;47.65;100168.09;5050196;28;20032;-48
2024/03/09 10:37:50;;;;;;;31.45;17.90;;;;;;;15.10;46.87;100162.53;5050055;28;20448;-46
2024/03/09 10:40:20;;;;;;;32.15;17.15;;;;;;;15.08;46.43;100161.69;5050486;28;20110;-46
2024/03/09 10:42:47;;;;;;;32.30;17.70;;;;;;;14.96;47.16;100159.25;5049963;28;20037;-47
2024/03/09 10:45:17;;;;;;;29.38;17.10;;;;;;;14.74;47.36;100157.84;5052155;28;20033;-45
2024/03/09 10:47:53;;;;;;;31.77;16.58;;;;;;;14.82;47.38;100148.97;5053798;28;20064;-45
2024/03/09 10:50:29;;;;;;;28.50;16.75;;;;;;;14.92;47.05;100147.94;5052972;28;20039;-46
2024/03/09 10:53:10;;;;;;;29.27;16.42;;;;;;;15.09;47.00;100150.28;5054298;28;20093;-46
2024/03/09 10:55:59;;;;;;;28.98;16.90;;;;;;;15.31;46.22;100151.66;5054269;28;20037;-46
2024/03/09 10:58:26;;;;;;;30.65;16.65;;;;;;;15.65;46.15;100151.09;5055096;28;20104;-48
2024/03/09 11:00:52;;;;;;;28.73;16.17;;;;;;;15.10;46.47;100144.16;5053720;28;20523;-45
2024/03/09 11:03:23;;;;;;;29.00;16.55;;;;;;;15.89;45.14;100150.63;5053343;28;20032;-46
2024/03/09 11:05:49;;;;;;;30.80;16.55;;;;;;;16.24;44.14;100150.75;5053133;28;20063;-47
2024/03/09 11:08:16;;;;;;;28.60;16.95;;;;;;;15.81;45.08;100155.16;5053539;28;20029;-49
2024/03/09 11:10:43;;;;;;;31.45;16.67;;;;;;;15.79;45.06;100143.81;5052765;28;20041;-46
2024/03/09 11:13:09;;;;;;;28.42;16.15;;;;;;;16.30;44.45;100139.22;5053225;28;20036;-48